Time;durP1;ratioP1;P1;durP2;ratioP2;P2;SDS_P1;SDS_P2;PMS_P1;PMS_P2;Temp;Humidity;BMP_temperature;BMP_pressure;BME280_temperature;BME280_humidity;BME280_pressure;Samples;Min_cycle;Max_cycle;Signal;HPM_P1;HPM_P2
2021/06/28 00:01:49;;;;;;;5.32;3.53;;;;;;;;;;5092741;28;20020;-67
2021/06/28 00:04:14;;;;;;;5.18;3.25;;;;;;;;;;5093057;28;20044;-67
2021/06/28 00:06:40;;;;;;;6.60;3.83;;;;;;;;;;5093109;28;20513;-67
2021/06/28 00:09:05;;;;;;;6.53;3.60;;;;;;;;;;5093055;28;20020;-67
2021/06/28 00:11:30;;;;;;;8.85;4.00;;;;;;;;;;5093127;28;20012;-67
2021/06/28 00:13:56;;;;;;;6.85;3.55;;;;;;;;;;5092545;28;20392;-67
2021/06/28 00:16:24;;;;;;;7.47;3.75;;;;;;;;;;5092981;28;20066;-67
2021/06/28 00:18:50;;;;;;;9.60;3.97;;;;;;;;;;5092804;28;20020;-67
2021/06/28 00:21:16;;;;;;;6.95;3.47;;;;;;;;;;5092719;28;20472;-66
2021/06/28 00:23:42;;;;;;;8.57;4.20;;;;;;;;;;5092754;28;20065;-67
2021/06/28 00:26:07;;;;;;;6.57;4.00;;;;;;;;;;5092989;28;20020;-66
2021/06/28 00:28:32;;;;;;;7.13;3.72;;;;;;;;;;5092489;28;20024;-66
2021/06/28 00:30:58;;;;;;;9.45;4.38;;;;;;;;;;5092913;28;20024;-67
2021/06/28 00:33:23;;;;;;;10.60;4.20;;;;;;;;;;5092387;28;20073;-67
2021/06/28 00:35:48;;;;;;;8.25;5.00;;;;;;;;;;5092474;28;20028;-66
2021/06/28 00:38:14;;;;;;;11.45;5.35;;;;;;;;;;5092563;28;20023;-66
2021/06/28 00:40:40;;;;;;;7.72;4.88;;;;;;;;;;5092878;28;20437;-66
2021/06/28 00:43:06;;;;;;;9.30;5.18;;;;;;;;;;5092607;28;20477;-66
2021/06/28 00:45:33;;;;;;;8.02;4.97;;;;;;;;;;5095416;28;20488;-67
2021/06/28 00:48:00;;;;;;;12.50;5.07;;;;;;;;;;5096660;28;20103;-67
2021/06/28 00:50:27;;;;;;;10.63;5.38;;;;;;;;;;5096434;28;20028;-66
2021/06/28 00:52:54;;;;;;;9.13;5.45;;;;;;;;;;5095952;28;20468;-66
2021/06/28 00:55:19;;;;;;;7.78;5.40;;;;;;;;;;5096460;28;20452;-66
2021/06/28 00:57:45;;;;;;;8.23;4.50;;;;;;;;;;5096194;28;20032;-66
2021/06/28 01:00:11;;;;;;;8.85;5.32;;;;;;;;;;5096135;28;20384;-66
2021/06/28 01:02:36;;;;;;;9.82;4.97;;;;;;;;;;5096272;28;20078;-67
2021/06/28 01:05:07;;;;;;;9.85;5.13;;;;;;;;;;5095904;28;20055;-66
2021/06/28 01:07:32;;;;;;;9.63;5.20;;;;;;;;;;5095932;28;20031;-66
2021/06/28 01:09:57;;;;;;;14.10;5.68;;;;;;;;;;5096018;28;20024;-66
2021/06/28 01:12:23;;;;;;;8.95;5.63;;;;;;;;;;5095845;28;20044;-66
2021/06/28 01:14:48;;;;;;;13.43;6.03;;;;;;;;;;5095742;28;20027;-66
2021/06/28 01:17:15;;;;;;;13.55;6.63;;;;;;;;;;5095999;28;20019;-66
2021/06/28 01:19:44;;;;;;;12.10;5.85;;;;;;;;;;5095757;28;20059;-66
2021/06/28 01:22:11;;;;;;;9.40;5.22;;;;;;;;;;5095847;28;20061;-67
2021/06/28 01:24:36;;;;;;;10.23;5.78;;;;;;;;;;5094530;28;20052;-66
2021/06/28 01:27:02;;;;;;;11.32;5.90;;;;;;;;;;5095711;28;20066;-67
2021/06/28 01:29:27;;;;;;;11.57;6.28;;;;;;;;;;5095331;28;20353;-66
2021/06/28 01:31:52;;;;;;;11.23;6.03;;;;;;;;;;5095307;28;20024;-67
2021/06/28 01:34:18;;;;;;;12.98;5.82;;;;;;;;;;5095497;28;20036;-67
2021/06/28 01:36:43;;;;;;;11.45;6.10;;;;;;;;;;5095269;28;20368;-66
2021/06/28 01:39:09;;;;;;;12.32;6.20;;;;;;;;;;5095166;28;20087;-67
2021/06/28 01:41:34;;;;;;;13.85;6.25;;;;;;;;;;5095407;28;20032;-67
2021/06/28 01:43:59;;;;;;;13.27;6.70;;;;;;;;;;5095325;28;20028;-67
2021/06/28 01:46:24;;;;;;;16.98;6.63;;;;;;;;;;5095432;28;20046;-67
2021/06/28 01:48:50;;;;;;;12.18;7.70;;;;;;;;;;5095111;28;20043;-67
2021/06/28 01:51:15;;;;;;;17.02;6.63;;;;;;;;;;5095229;28;20020;-66
2021/06/28 01:53:40;;;;;;;13.93;7.03;;;;;;;;;;5094741;28;20400;-67
2021/06/28 01:56:06;;;;;;;11.90;6.43;;;;;;;;;;5094264;28;20066;-66
2021/06/28 01:58:32;;;;;;;16.45;6.47;;;;;;;;;;5094853;28;20457;-66
2021/06/28 02:00:58;;;;;;;14.38;7.70;;;;;;;;;;5094792;28;20020;-66
2021/06/28 02:03:24;;;;;;;11.63;7.03;;;;;;;;;;5094441;28;20040;-66
2021/06/28 02:05:51;;;;;;;14.20;7.50;;;;;;;;;;5094608;28;20369;-66
2021/06/28 02:08:17;;;;;;;12.32;6.65;;;;;;;;;;5094835;28;20342;-66
2021/06/28 02:10:46;;;;;;;13.63;6.68;;;;;;;;;;5094805;28;20035;-66
2021/06/28 02:13:12;;;;;;;14.80;7.20;;;;;;;;;;5094687;28;20027;-67
2021/06/28 02:15:37;;;;;;;11.32;6.95;;;;;;;;;;5094750;28;20418;-66
2021/06/28 02:18:03;;;;;;;14.80;7.53;;;;;;;;;;5094510;28;20476;-66
2021/06/28 02:20:28;;;;;;;12.13;6.60;;;;;;;;;;5094282;28;20077;-66
2021/06/28 02:22:55;;;;;;;10.95;6.82;;;;;;;;;;5094620;28;20364;-67
2021/06/28 02:25:20;;;;;;;12.63;6.60;;;;;;;;;;5094411;28;20508;-66
2021/06/28 02:27:46;;;;;;;13.73;6.80;;;;;;;;;;5094442;28;20062;-67
2021/06/28 02:30:13;;;;;;;11.27;6.57;;;;;;;;;;5094454;28;20024;-67
2021/06/28 02:32:41;;;;;;;13.13;6.85;;;;;;;;;;5094278;28;20066;-67
2021/06/28 02:35:08;;;;;;;9.85;6.60;;;;;;;;;;5094287;28;20027;-67
2021/06/28 02:37:34;;;;;;;12.90;6.22;;;;;;;;;;5094167;28;20016;-66
2021/06/28 02:39:59;;;;;;;10.85;6.05;;;;;;;;;;5094187;28;20475;-66
2021/06/28 02:42:24;;;;;;;12.10;6.40;;;;;;;;;;5094330;28;20024;-67
2021/06/28 02:44:50;;;;;;;14.13;6.55;;;;;;;;;;5093890;28;20028;-66
2021/06/28 02:47:15;;;;;;;16.48;7.15;;;;;;;;;;5094208;28;20024;-66
2021/06/28 02:49:40;;;;;;;18.10;7.78;;;;;;;;;;5092012;28;20445;-67
2021/06/28 02:52:06;;;;;;;17.83;9.65;;;;;;;;;;5094099;28;20039;-67
2021/06/28 02:54:31;;;;;;;16.25;9.40;;;;;;;;;;5093893;28;20036;-66
2021/06/28 02:56:56;;;;;;;24.35;10.30;;;;;;;;;;5093996;28;20016;-67
2021/06/28 02:59:22;;;;;;;21.52;9.90;;;;;;;;;;5087224;28;20099;-67
2021/06/28 03:01:47;;;;;;;25.77;10.73;;;;;;;;;;5072903;28;20444;-66
2021/06/28 03:04:13;;;;;;;20.88;10.25;;;;;;;;;;5072136;28;20043;-66
2021/06/28 03:06:38;;;;;;;32.30;11.63;;;;;;;;;;5073165;28;20036;-66
2021/06/28 03:09:03;;;;;;;51.40;14.65;;;;;;;;;;5073518;28;20036;-67
2021/06/28 03:11:28;;;;;;;35.97;13.40;;;;;;;;;;5073606;28;20025;-67
2021/06/28 03:13:54;;;;;;;52.17;15.27;;;;;;;;;;5073326;28;20453;-67
2021/06/28 03:16:19;;;;;;;50.28;15.77;;;;;;;;;;5073457;28;20032;-67
2021/06/28 03:18:45;;;;;;;22.95;10.88;;;;;;;;;;5073303;28;20078;-67
2021/06/28 03:21:11;;;;;;;36.20;13.65;;;;;;;;;;5073536;28;20030;-67
2021/06/28 03:23:38;;;;;;;23.83;10.23;;;;;;;;;;5073422;28;20370;-67
2021/06/28 03:26:03;;;;;;;40.33;13.40;;;;;;;;;;5073356;28;20031;-67
2021/06/28 03:28:29;;;;;;;26.52;12.18;;;;;;;;;;5073478;28;20373;-67
2021/06/28 03:30:54;;;;;;;50.38;15.25;;;;;;;;;;5073213;28;20068;-67
2021/06/28 03:33:19;;;;;;;28.65;11.35;;;;;;;;;;5073245;28;20109;-67
2021/06/28 03:35:45;;;;;;;40.25;13.88;;;;;;;;;;5073147;28;20104;-67
2021/06/28 03:38:10;;;;;;;39.80;13.23;;;;;;;;;;5090269;28;20036;-67
2021/06/28 03:40:35;;;;;;;33.60;11.35;;;;;;;;;;5092973;28;20424;-67
2021/06/28 03:43:02;;;;;;;49.78;14.10;;;;;;;;;;5093437;28;20089;-67
2021/06/28 03:45:28;;;;;;;42.67;14.05;;;;;;;;;;5093286;28;20056;-68
2021/06/28 03:47:53;;;;;;;46.08;14.05;;;;;;;;;;5093240;28;20047;-67
2021/06/28 03:50:19;;;;;;;38.83;13.73;;;;;;;;;;5092919;28;20109;-67
2021/06/28 03:52:44;;;;;;;46.63;12.88;;;;;;;;;;5093069;28;20047;-67
2021/06/28 03:55:10;;;;;;;33.22;12.50;;;;;;;;;;5093118;28;20028;-67
2021/06/28 03:57:35;;;;;;;25.40;11.23;;;;;;;;;;5091921;28;20389;-67
2021/06/28 04:00:06;;;;;;;24.10;11.32;;;;;;;;;;5093120;28;20036;-67
2021/06/28 04:02:31;;;;;;;41.35;14.57;;;;;;;;;;5093190;28;20579;-67
2021/06/28 04:04:57;;;;;;;32.03;12.55;;;;;;;;;;5092975;28;20094;-68
2021/06/28 04:07:22;;;;;;;37.22;12.93;;;;;;;;;;5092808;28;20460;-67
2021/06/28 04:09:47;;;;;;;46.45;14.82;;;;;;;;;;5091870;28;20020;-67
2021/06/28 04:12:13;;;;;;;31.40;13.15;;;;;;;;;;5092762;28;20034;-66
2021/06/28 04:14:38;;;;;;;44.17;15.15;;;;;;;;;;5092883;28;20103;-67
2021/06/28 04:17:07;;;;;;;37.92;12.98;;;;;;;;;;5093033;28;20020;-67
2021/06/28 04:19:32;;;;;;;59.80;16.67;;;;;;;;;;5094386;28;20024;-67
2021/06/28 04:21:58;;;;;;;35.90;11.82;;;;;;;;;;5097295;28;20030;-67
2021/06/28 04:24:23;;;;;;;37.08;12.88;;;;;;;;;;5096838;28;20020;-67
2021/06/28 04:26:48;;;;;;;44.83;13.73;;;;;;;;;;5096959;28;20437;-67
2021/06/28 04:29:14;;;;;;;25.20;10.88;;;;;;;;;;5096748;28;20103;-66
2021/06/28 04:31:39;;;;;;;52.85;14.93;;;;;;;;;;5096755;28;20016;-67
2021/06/28 04:34:04;;;;;;;25.70;10.27;;;;;;;;;;5096641;28;20067;-67
2021/06/28 04:36:30;;;;;;;18.25;8.93;;;;;;;;;;5096790;28;20038;-67
2021/06/28 04:38:55;;;;;;;21.92;9.32;;;;;;;;;;5096168;28;20099;-66
2021/06/28 04:41:20;;;;;;;17.38;7.70;;;;;;;;;;5096746;28;20103;-67
2021/06/28 04:43:45;;;;;;;26.40;9.88;;;;;;;;;;5096451;28;20028;-66
2021/06/28 04:46:11;;;;;;;29.17;8.82;;;;;;;;;;5096596;28;20119;-67
2021/06/28 04:48:36;;;;;;;17.98;6.50;;;;;;;;;;5096321;28;20471;-67
2021/06/28 04:51:01;;;;;;;19.48;6.55;;;;;;;;;;5096415;28;20059;-67
2021/06/28 04:53:27;;;;;;;34.30;8.85;;;;;;;;;;5096272;28;20058;-67
2021/06/28 04:55:52;;;;;;;15.88;6.85;;;;;;;;;;5096238;28;20069;-67
2021/06/28 04:58:17;;;;;;;11.55;5.30;;;;;;;;;;5096328;28;20447;-67
2021/06/28 05:00:43;;;;;;;16.58;6.68;;;;;;;;;;5096108;28;20027;-67
2021/06/28 05:03:08;;;;;;;16.15;5.63;;;;;;;;;;5096309;28;20048;-67
2021/06/28 05:05:33;;;;;;;12.45;5.55;;;;;;;;;;5095527;28;20044;-67
2021/06/28 05:07:59;;;;;;;10.93;5.68;;;;;;;;;;5096420;28;20065;-67
2021/06/28 05:10:24;;;;;;;20.60;7.32;;;;;;;;;;5096065;28;20052;-67
2021/06/28 05:12:49;;;;;;;10.85;4.63;;;;;;;;;;5095855;28;20388;-66
2021/06/28 05:15:15;;;;;;;19.00;6.10;;;;;;;;;;5095831;28;20078;-68
2021/06/28 05:17:41;;;;;;;11.10;4.80;;;;;;;;;;5095579;28;20084;-67
2021/06/28 05:20:07;;;;;;;11.52;4.75;;;;;;;;;;5095855;28;20036;-67
2021/06/28 05:22:32;;;;;;;9.95;5.63;;;;;;;;;;5095811;28;20069;-66
2021/06/28 05:24:57;;;;;;;16.58;5.80;;;;;;;;;;5095718;28;20028;-67
2021/06/28 05:27:23;;;;;;;20.83;7.22;;;;;;;;;;5090485;28;20093;-67
2021/06/28 05:29:55;;;;;;;15.68;6.22;;;;;;;;;;5075178;28;20024;-67
2021/06/28 05:32:20;;;;;;;16.80;6.20;;;;;;;;;;5074417;28;20024;-66
2021/06/28 05:34:46;;;;;;;20.38;7.65;;;;;;;;;;5075230;28;20427;-67
2021/06/28 05:37:11;;;;;;;19.55;7.97;;;;;;;;;;5083780;28;20016;-67
2021/06/28 05:39:36;;;;;;;17.83;6.47;;;;;;;;;;5095360;28;20016;-67
2021/06/28 05:42:01;;;;;;;14.00;6.82;;;;;;;;;;5095502;28;20028;-67
2021/06/28 05:44:27;;;;;;;16.70;7.25;;;;;;;;;;5095332;28;20024;-68
2021/06/28 05:46:52;;;;;;;29.73;9.55;;;;;;;;;;5095325;28;20070;-67
2021/06/28 05:49:17;;;;;;;14.38;6.55;;;;;;;;;;5094943;28;20036;-67
2021/06/28 05:51:43;;;;;;;30.50;9.25;;;;;;;;;;5095163;28;20048;-67
2021/06/28 05:54:08;;;;;;;22.17;8.43;;;;;;;;;;5094801;28;20093;-67
2021/06/28 05:56:33;;;;;;;15.10;6.82;;;;;;;;;;5093902;28;20043;-67
2021/06/28 05:58:58;;;;;;;17.20;6.57;;;;;;;;;;5093051;28;20555;-67
2021/06/28 06:01:24;;;;;;;13.30;5.75;;;;;;;;;;5074890;28;20063;-67
2021/06/28 06:03:49;;;;;;;18.33;7.07;;;;;;;;;;5074255;28;20117;-67
2021/06/28 06:06:14;;;;;;;11.00;6.35;;;;;;;;;;5074527;28;20024;-67
2021/06/28 06:08:40;;;;;;;9.00;4.63;;;;;;;;;;5074557;28;20162;-67
2021/06/28 06:11:05;;;;;;;10.82;5.68;;;;;;;;;;5074558;28;20033;-66
2021/06/28 06:13:30;;;;;;;9.63;4.95;;;;;;;;;;5080172;28;20531;-67
2021/06/28 06:15:58;;;;;;;12.80;3.95;;;;;;;;;;5094411;28;20538;-67
2021/06/28 06:18:23;;;;;;;10.52;4.50;;;;;;;;;;5094709;28;20380;-67
2021/06/28 06:20:48;;;;;;;11.55;4.68;;;;;;;;;;5077491;28;20031;-66
2021/06/28 06:23:14;;;;;;;12.35;4.55;;;;;;;;;;5073863;28;20090;-66
2021/06/28 06:25:40;;;;;;;8.88;3.97;;;;;;;;;;5093995;28;20031;-66
2021/06/28 06:28:06;;;;;;;7.93;3.92;;;;;;;;;;5094515;28;20422;-67
2021/06/28 06:30:31;;;;;;;7.43;3.42;;;;;;;;;;5094523;28;20024;-67
2021/06/28 06:32:57;;;;;;;8.15;3.30;;;;;;;;;;5094678;28;20051;-66
2021/06/28 06:35:22;;;;;;;5.97;2.92;;;;;;;;;;5094281;28;20074;-66
2021/06/28 06:37:49;;;;;;;4.57;2.92;;;;;;;;;;5094395;28;20012;-67
2021/06/28 06:40:14;;;;;;;4.63;2.80;;;;;;;;;;5094205;28;20039;-67
2021/06/28 06:42:40;;;;;;;4.93;3.00;;;;;;;;;;5093941;28;20024;-66
2021/06/28 06:45:05;;;;;;;4.82;3.28;;;;;;;;;;5094233;28;20506;-67
2021/06/28 06:47:31;;;;;;;7.38;3.10;;;;;;;;;;5094259;28;20043;-67
2021/06/28 06:49:56;;;;;;;6.72;3.22;;;;;;;;;;5093995;28;20016;-66
2021/06/28 06:52:21;;;;;;;7.00;3.20;;;;;;;;;;5093809;28;20072;-67
2021/06/28 06:54:46;;;;;;;7.68;3.08;;;;;;;;;;5093625;28;20028;-68
2021/06/28 06:57:12;;;;;;;4.13;2.53;;;;;;;;;;5093836;28;20016;-67
2021/06/28 06:59:37;;;;;;;7.57;2.97;;;;;;;;;;5093934;28;20047;-67
2021/06/28 07:02:03;;;;;;;6.60;3.33;;;;;;;;;;5093990;28;20036;-67
2021/06/28 07:04:28;;;;;;;10.85;2.60;;;;;;;;;;5093418;28;20040;-67
2021/06/28 07:06:53;;;;;;;6.60;2.67;;;;;;;;;;5093521;28;20066;-67
2021/06/28 07:09:18;;;;;;;4.43;2.47;;;;;;;;;;5093758;28;20111;-67
2021/06/28 07:11:44;;;;;;;6.28;2.85;;;;;;;;;;5093719;28;20467;-66
2021/06/28 07:14:09;;;;;;;4.45;2.63;;;;;;;;;;5093787;28;20036;-67
2021/06/28 07:16:34;;;;;;;4.95;2.85;;;;;;;;;;5093631;28;20059;-67
2021/06/28 07:19:01;;;;;;;6.07;2.88;;;;;;;;;;5093603;28;20024;-67
2021/06/28 07:21:27;;;;;;;8.65;3.45;;;;;;;;;;5093352;28;20088;-66
2021/06/28 07:23:52;;;;;;;6.93;3.25;;;;;;;;;;5093476;28;20040;-66
2021/06/28 07:26:18;;;;;;;5.63;2.80;;;;;;;;;;5093545;28;20149;-67
2021/06/28 07:28:44;;;;;;;6.78;3.40;;;;;;;;;;5093491;28;20031;-67
2021/06/28 07:31:09;;;;;;;4.53;3.10;;;;;;;;;;5093360;28;20028;-67
2021/06/28 07:33:38;;;;;;;6.97;3.22;;;;;;;;;;5093217;28;20164;-66
2021/06/28 07:36:04;;;;;;;6.10;3.10;;;;;;;;;;5093343;28;20020;-67
2021/06/28 07:38:29;;;;;;;7.30;3.33;;;;;;;;;;5093381;28;20036;-67
2021/06/28 07:40:54;;;;;;;8.07;3.40;;;;;;;;;;5093200;28;20027;-67
2021/06/28 07:43:20;;;;;;;4.75;3.30;;;;;;;;;;5093493;28;20100;-67
2021/06/28 07:45:47;;;;;;;6.32;3.40;;;;;;;;;;5093372;28;20039;-66
2021/06/28 07:48:13;;;;;;;6.88;3.33;;;;;;;;;;5093324;28;20047;-66
2021/06/28 07:50:38;;;;;;;10.30;3.65;;;;;;;;;;5093168;28;20380;-67
2021/06/28 07:53:03;;;;;;;4.90;2.90;;;;;;;;;;5093099;28;20047;-67
2021/06/28 07:55:29;;;;;;;7.50;3.33;;;;;;;;;;5096397;28;20051;-66
2021/06/28 07:57:54;;;;;;;4.75;2.95;;;;;;;;;;5097543;28;20059;-67
2021/06/28 08:00:19;;;;;;;4.85;3.33;;;;;;;;;;5097392;28;20035;-67
2021/06/28 08:02:45;;;;;;;6.75;3.35;;;;;;;;;;5097260;28;20049;-67
2021/06/28 08:05:12;;;;;;;6.45;3.20;;;;;;;;;;5096852;28;20047;-67
2021/06/28 08:07:37;;;;;;;7.63;3.70;;;;;;;;;;5097246;28;20036;-66
2021/06/28 08:10:04;;;;;;;5.30;3.22;;;;;;;;;;5097080;28;20020;-67
2021/06/28 08:12:29;;;;;;;10.63;3.30;;;;;;;;;;5097149;28;20097;-66
2021/06/28 08:14:54;;;;;;;5.95;3.67;;;;;;;;;;5097030;28;20419;-67
2021/06/28 08:17:20;;;;;;;5.28;3.55;;;;;;;;;;5097026;28;20102;-66
2021/06/28 08:19:47;;;;;;;5.15;3.00;;;;;;;;;;5097036;28;20103;-67
2021/06/28 08:22:12;;;;;;;4.53;3.05;;;;;;;;;;5097041;28;20119;-66
2021/06/28 08:24:37;;;;;;;5.57;3.05;;;;;;;;;;5096575;28;20435;-67
2021/06/28 08:27:03;;;;;;;9.63;3.30;;;;;;;;;;5097012;28;20027;-67
2021/06/28 08:29:28;;;;;;;4.63;2.85;;;;;;;;;;5096535;28;20373;-67
2021/06/28 08:31:53;;;;;;;5.22;3.15;;;;;;;;;;5096788;28;20054;-67
2021/06/28 08:34:19;;;;;;;4.63;3.10;;;;;;;;;;5096728;28;20039;-67
2021/06/28 08:36:45;;;;;;;5.40;3.00;;;;;;;;;;5096566;28;20054;-67
2021/06/28 08:39:11;;;;;;;5.78;2.83;;;;;;;;;;5096831;28;20035;-67
2021/06/28 08:41:37;;;;;;;7.45;3.13;;;;;;;;;;5096677;28;20024;-67
2021/06/28 08:44:03;;;;;;;4.78;2.95;;;;;;;;;;5096455;28;20085;-66
2021/06/28 08:46:28;;;;;;;6.90;3.33;;;;;;;;;;5096601;28;20063;-67
2021/06/28 08:48:54;;;;;;;7.07;3.40;;;;;;;;;;5096505;28;20016;-67
2021/06/28 08:51:20;;;;;;;10.30;3.28;;;;;;;;;;5096359;28;20032;-66
2021/06/28 08:53:52;;;;;;;9.10;3.38;;;;;;;;;;5096160;28;20044;-67
2021/06/28 08:56:17;;;;;;;10.38;3.78;;;;;;;;;;5096071;28;20471;-67
2021/06/28 08:58:43;;;;;;;8.60;3.75;;;;;;;;;;5096133;28;20114;-66
2021/06/28 09:01:09;;;;;;;8.00;3.85;;;;;;;;;;5096220;28;20020;-66
2021/06/28 09:03:34;;;;;;;8.40;3.67;;;;;;;;;;5096004;28;20024;-67
2021/06/28 09:06:07;;;;;;;5.95;3.88;;;;;;;;;;5095746;28;20032;-67
2021/06/28 09:08:35;;;;;;;9.35;5.07;;;;;;;;;;5096065;28;20027;-66
2021/06/28 09:11:01;;;;;;;7.18;3.63;;;;;;;;;;5095961;28;20110;-67
2021/06/28 09:13:37;;;;;;;5.72;3.28;;;;;;;;;;5095917;28;20152;-66
2021/06/28 09:16:13;;;;;;;7.38;3.92;;;;;;;;;;5095939;28;20074;-66
2021/06/28 09:18:48;;;;;;;7.32;3.60;;;;;;;;;;5094520;28;20424;-67
2021/06/28 09:21:13;;;;;;;6.53;3.58;;;;;;;;;;5095810;28;20725;-66
2021/06/28 09:23:40;;;;;;;7.88;3.97;;;;;;;;;;5095334;28;20032;-67
2021/06/28 09:26:10;;;;;;;5.38;3.85;;;;;;;;;;5095614;28;20024;-66
2021/06/28 09:28:40;;;;;;;6.40;3.75;;;;;;;;;;5095710;28;20034;-66
2021/06/28 09:31:05;;;;;;;9.32;4.50;;;;;;;;;;5095451;28;20115;-66
2021/06/28 09:33:31;;;;;;;6.20;4.35;;;;;;;;;;5095547;28;20115;-67
2021/06/28 09:35:57;;;;;;;8.73;4.57;;;;;;;;;;5095307;28;20447;-66
2021/06/28 09:38:37;;;;;;;9.98;4.07;;;;;;;;;;5095511;28;20040;-67
2021/06/28 09:41:22;;;;;;;9.57;3.60;;;;;;;;;;5095368;28;20031;-67
2021/06/28 09:43:47;;;;;;;6.93;4.73;;;;;;;;;;5095306;28;20042;-67
2021/06/28 09:46:20;;;;;;;6.35;4.20;;;;;;;;;;5095341;28;20333;-67
2021/06/28 09:48:49;;;;;;;6.65;4.22;;;;;;;;;;5095201;28;20039;-66
2021/06/28 09:51:21;;;;;;;10.70;3.97;;;;;;;;;;5095239;28;20029;-67
2021/06/28 09:53:50;;;;;;;11.70;4.95;;;;;;;;;;5094701;28;20040;-67
2021/06/28 09:56:29;;;;;;;11.43;4.95;;;;;;;;;;5095120;28;20051;-65
2021/06/28 09:58:54;;;;;;;7.30;4.32;;;;;;;;;;5095003;28;20039;-67
2021/06/28 10:01:24;;;;;;;7.55;4.95;;;;;;;;;;5094999;28;20032;-66
2021/06/28 10:03:52;;;;;;;6.90;4.70;;;;;;;;;;5094679;28;20044;-66
2021/06/28 10:08:51;;;;;;;7.45;5.30;;;;;;;;;;5094854;28;20032;-66
2021/06/28 10:11:18;;;;;;;9.13;5.13;;;;;;;;;;5094786;28;20040;-66
2021/06/28 10:13:52;;;;;;;7.47;4.75;;;;;;;;;;5094733;28;20044;-67
2021/06/28 10:16:19;;;;;;;8.18;5.63;;;;;;;;;;5094425;28;20020;-66
2021/06/28 10:18:46;;;;;;;10.50;5.05;;;;;;;;;;5094280;28;20024;-66
2021/06/28 10:21:11;;;;;;;11.68;4.70;;;;;;;;;;5094318;28;20380;-66
2021/06/28 10:23:36;;;;;;;7.28;4.60;;;;;;;;;;5094703;28;20012;-67
2021/06/28 10:26:02;;;;;;;13.15;5.32;;;;;;;;;;5094438;28;20028;-67
2021/06/28 10:28:29;;;;;;;7.85;4.82;;;;;;;;;;5094617;28;20031;-67
2021/06/28 10:30:54;;;;;;;11.15;5.20;;;;;;;;;;5094362;28;20024;-66
2021/06/28 10:33:22;;;;;;;8.38;4.82;;;;;;;;;;5094347;28;20097;-67
2021/06/28 10:35:47;;;;;;;9.73;5.15;;;;;;;;;;5092935;28;20022;-67
2021/06/28 10:38:13;;;;;;;7.70;5.55;;;;;;;;;;5094459;28;20024;-66
2021/06/28 10:40:47;;;;;;;12.40;5.10;;;;;;;;;;5094139;28;20043;-67
2021/06/28 10:43:41;;;;;;;7.57;5.03;;;;;;;;;;5094227;28;20118;-66
2021/06/28 10:46:08;;;;;;;9.90;5.15;;;;;;;;;;5088931;28;20481;-67
2021/06/28 10:48:44;;;;;;;9.02;5.28;;;;;;;;;;5094290;28;20039;-66
2021/06/28 10:51:10;;;;;;;13.25;5.25;;;;;;;;;;5094033;28;20079;-67
2021/06/28 10:53:36;;;;;;;8.98;4.68;;;;;;;;;;5093812;28;20534;-66
2021/06/28 10:56:26;;;;;;;9.18;5.60;;;;;;;;;;5094090;28;20016;-67
2021/06/28 10:58:54;;;;;;;10.25;5.60;;;;;;;;;;5093493;28;20040;-66
2021/06/28 11:01:32;;;;;;;13.57;4.72;;;;;;;;;;5093937;28;20039;-67
2021/06/28 11:04:04;;;;;;;10.50;5.25;;;;;;;;;;5093752;28;20116;-67
2021/06/28 11:06:29;;;;;;;12.05;5.78;;;;;;;;;;5093792;28;20039;-67
2021/06/28 11:08:56;;;;;;;7.28;5.13;;;;;;;;;;5093786;28;20124;-67
2021/06/28 11:11:39;;;;;;;13.90;4.95;;;;;;;;;;5093586;28;20035;-66
2021/06/28 11:14:05;;;;;;;7.70;5.10;;;;;;;;;;5093645;28;20047;-67
2021/06/28 11:16:30;;;;;;;12.85;5.80;;;;;;;;;;5093697;28;20061;-66
2021/06/28 11:18:55;;;;;;;13.23;6.05;;;;;;;;;;5093632;28;20038;-67
2021/06/28 11:21:50;;;;;;;9.80;6.03;;;;;;;;;;5092358;28;20044;-67
2021/06/28 11:24:31;;;;;;;12.23;5.82;;;;;;;;;;5088335;28;20472;-66
2021/06/28 11:27:16;;;;;;;11.25;5.82;;;;;;;;;;5093553;28;20039;-67
2021/06/28 11:29:48;;;;;;;9.93;6.07;;;;;;;;;;5093448;28;20040;-67
2021/06/28 11:32:24;;;;;;;9.75;6.65;;;;;;;;;;5093602;28;20084;-66
2021/06/28 11:34:49;;;;;;;8.95;5.97;;;;;;;;;;5093348;28;20028;-66
2021/06/28 11:37:15;;;;;;;10.00;6.63;;;;;;;;;;5093474;28;20031;-66
2021/06/28 11:40:12;;;;;;;12.48;6.47;;;;;;;;;;5093639;28;20056;-67
2021/06/28 11:42:38;;;;;;;9.13;5.75;;;;;;;;;;5080726;28;20500;-66
2021/06/28 11:45:11;;;;;;;10.73;5.30;;;;;;;;;;5093191;28;20043;-67
2021/06/28 11:47:46;;;;;;;9.95;6.00;;;;;;;;;;5093057;28;20469;-67
2021/06/28 11:50:23;;;;;;;7.65;5.60;;;;;;;;;;5093167;28;20063;-67
2021/06/28 11:52:48;;;;;;;10.82;6.05;;;;;;;;;;5093109;28;20040;-66
2021/06/28 11:55:14;;;;;;;12.57;5.65;;;;;;;;;;5093123;28;20044;-66
2021/06/28 11:57:39;;;;;;;13.43;5.70;;;;;;;;;;5092952;28;20036;-67
2021/06/28 12:00:07;;;;;;;11.40;6.47;;;;;;;;;;5093089;28;20020;-66
2021/06/28 12:02:32;;;;;;;9.65;5.63;;;;;;;;;;5093235;28;20050;-67
2021/06/28 12:04:58;;;;;;;12.25;6.78;;;;;;;;;;5093047;28;20051;-67
2021/06/28 12:07:23;;;;;;;7.35;5.32;;;;;;;;;;5092869;28;20074;-67
2021/06/28 12:09:49;;;;;;;9.35;5.50;;;;;;;;;;5092923;28;20452;-67
2021/06/28 12:12:15;;;;;;;8.60;6.05;;;;;;;;;;5093095;28;20107;-66
2021/06/28 12:14:42;;;;;;;10.30;6.45;;;;;;;;;;5092955;28;20016;-66
2021/06/28 12:17:14;;;;;;;10.55;5.70;;;;;;;;;;5092790;28;20547;-67
2021/06/28 12:19:41;;;;;;;8.40;5.72;;;;;;;;;;5092585;28;20028;-67
2021/06/28 12:22:10;;;;;;;14.18;7.60;;;;;;;;;;5092744;28;20024;-67
2021/06/28 12:24:35;;;;;;;9.55;6.32;;;;;;;;;;5092966;28;20428;-67
2021/06/28 12:27:03;;;;;;;9.07;6.10;;;;;;;;;;5092647;28;20064;-67
2021/06/28 12:29:31;;;;;;;12.40;6.88;;;;;;;;;;5093064;28;20107;-67
2021/06/28 12:32:04;;;;;;;10.77;6.65;;;;;;;;;;5092687;28;20439;-66
2021/06/28 12:34:30;;;;;;;11.95;5.72;;;;;;;;;;5093175;28;20062;-66
2021/06/28 12:36:55;;;;;;;9.73;6.38;;;;;;;;;;5092552;28;20017;-67
2021/06/28 12:39:22;;;;;;;8.75;5.47;;;;;;;;;;5092909;28;20054;-67
2021/06/28 12:41:47;;;;;;;9.15;6.40;;;;;;;;;;5095795;28;20399;-67
2021/06/28 12:44:12;;;;;;;9.90;6.28;;;;;;;;;;5096660;28;20103;-67
2021/06/28 12:46:37;;;;;;;10.13;6.07;;;;;;;;;;5096432;28;20024;-67
2021/06/28 12:49:04;;;;;;;9.60;6.65;;;;;;;;;;5096210;28;20120;-67
2021/06/28 12:51:29;;;;;;;10.55;6.65;;;;;;;;;;5096134;28;20456;-67
2021/06/28 12:53:54;;;;;;;9.95;6.60;;;;;;;;;;5096309;28;20052;-67
2021/06/28 12:56:20;;;;;;;9.93;6.25;;;;;;;;;;5096264;28;20068;-67
2021/06/28 12:58:57;;;;;;;10.63;7.03;;;;;;;;;;5096355;28;20012;-67
2021/06/28 13:01:32;;;;;;;10.80;6.20;;;;;;;;;;5096161;28;20044;-67
2021/06/28 13:04:17;;;;;;;11.40;6.13;;;;;;;;;;5095939;28;20493;-67
2021/06/28 13:06:42;;;;;;;7.82;5.05;;;;;;;;;;5095972;28;20080;-67
2021/06/28 13:09:18;;;;;;;10.30;5.47;;;;;;;;;;5095820;28;20032;-67
2021/06/28 13:11:47;;;;;;;6.72;4.82;;;;;;;;;;5095976;28;20036;-67
2021/06/28 13:14:22;;;;;;;7.75;5.40;;;;;;;;;;5095921;28;20047;-67
2021/06/28 13:19:13;;;;;;;7.18;5.00;;;;;;;;;;5095881;28;20041;-67
2021/06/28 13:21:40;;;;;;;7.97;5.55;;;;;;;;;;5095822;28;20024;-67
2021/06/28 13:24:06;;;;;;;10.40;5.38;;;;;;;;;;5095634;28;20464;-67
2021/06/28 13:26:33;;;;;;;11.23;5.13;;;;;;;;;;5096073;28;20032;-67
2021/06/28 13:29:00;;;;;;;10.07;5.65;;;;;;;;;;5095774;28;20024;-68
2021/06/28 13:31:26;;;;;;;12.13;5.43;;;;;;;;;;5095480;28;20066;-67
2021/06/28 13:34:10;;;;;;;9.40;5.60;;;;;;;;;;5095227;28;20048;-67
2021/06/28 13:36:35;;;;;;;7.18;5.45;;;;;;;;;;5095567;28;20032;-67
2021/06/28 13:39:01;;;;;;;8.60;5.72;;;;;;;;;;5095469;28;20550;-67
2021/06/28 13:41:42;;;;;;;8.00;6.25;;;;;;;;;;5095791;28;20024;-67
2021/06/28 13:44:10;;;;;;;8.93;6.18;;;;;;;;;;5095421;28;20112;-67
2021/06/28 13:46:36;;;;;;;13.57;5.88;;;;;;;;;;5095440;28;20028;-67
2021/06/28 13:49:18;;;;;;;7.13;5.40;;;;;;;;;;5095236;28;20020;-67
2021/06/28 13:51:44;;;;;;;9.45;4.90;;;;;;;;;;5093799;28;20540;-67
2021/06/28 13:54:09;;;;;;;9.27;5.85;;;;;;;;;;5094896;28;20507;-67
2021/06/28 13:56:34;;;;;;;10.27;6.13;;;;;;;;;;5095106;28;20020;-67
2021/06/28 13:58:59;;;;;;;8.13;5.78;;;;;;;;;;5095115;28;20052;-67
2021/06/28 14:01:25;;;;;;;7.75;5.55;;;;;;;;;;5095119;28;20361;-67
2021/06/28 14:03:50;;;;;;;9.43;5.22;;;;;;;;;;5094945;28;20044;-67
2021/06/28 14:06:15;;;;;;;7.15;4.97;;;;;;;;;;5094965;28;20524;-67
2021/06/28 14:08:41;;;;;;;8.98;5.63;;;;;;;;;;5094921;28;20126;-67
2021/06/28 14:11:06;;;;;;;8.98;5.20;;;;;;;;;;5094851;28;20032;-67
2021/06/28 14:13:31;;;;;;;10.75;5.50;;;;;;;;;;5094854;28;20038;-67
2021/06/28 14:16:24;;;;;;;10.40;5.30;;;;;;;;;;5070188;28;20173;-67
2021/06/28 14:18:49;;;;;;;5.78;4.60;;;;;;;;;;5094867;28;20127;-67
2021/06/28 14:21:15;;;;;;;9.40;5.35;;;;;;;;;;5094566;28;20036;-67
2021/06/28 14:23:40;;;;;;;10.63;4.60;;;;;;;;;;5094786;28;20028;-67
2021/06/28 14:26:05;;;;;;;6.78;5.18;;;;;;;;;;5094529;28;20485;-67
2021/06/28 14:28:31;;;;;;;13.10;5.50;;;;;;;;;;5094736;28;20036;-67
2021/06/28 14:30:56;;;;;;;9.02;5.28;;;;;;;;;;5094286;28;20080;-67
2021/06/28 14:33:21;;;;;;;9.90;5.47;;;;;;;;;;5094501;28;20046;-67
2021/06/28 14:35:46;;;;;;;8.43;5.82;;;;;;;;;;5094284;28;20410;-67
2021/06/28 14:38:12;;;;;;;7.22;4.63;;;;;;;;;;5094389;28;20063;-67
2021/06/28 14:40:37;;;;;;;8.25;5.32;;;;;;;;;;5094628;28;20036;-67